createdAt,value
2022-08-03T00:00:26.668Z,21.60
2022-08-03T00:02:53.652Z,21.52
2022-08-03T00:05:20.486Z,21.36
2022-08-03T00:07:48.631Z,21.52
2022-08-03T00:10:17.337Z,21.56
2022-08-03T00:12:44.056Z,21.11
2022-08-03T00:15:15.254Z,21.63
2022-08-03T00:17:52.935Z,21.65
2022-08-03T00:20:21.963Z,21.33
2022-08-03T00:22:49.723Z,21.55
2022-08-03T00:25:16.566Z,21.13
2022-08-03T00:27:43.186Z,21.27
2022-08-03T00:30:10.629Z,20.55
2022-08-03T00:32:37.285Z,21.17
2022-08-03T00:35:09.923Z,21.23
2022-08-03T00:37:40.654Z,20.98
2022-08-03T00:40:15.867Z,21.21
2022-08-03T00:43:00.532Z,21.00
2022-08-03T00:45:30.029Z,21.31
2022-08-03T00:47:57.748Z,21.32
2022-08-03T00:50:26.635Z,21.26
2022-08-03T00:52:55.466Z,20.88
2022-08-03T00:55:23.100Z,21.26
2022-08-03T00:57:50.557Z,20.72
2022-08-03T01:00:21.064Z,21.06
2022-08-03T01:02:49.991Z,21.18
2022-08-03T01:05:17.507Z,21.11
2022-08-03T01:08:23.151Z,20.67
2022-08-03T01:11:27.168Z,21.24
2022-08-03T01:14:19.382Z,20.91
2022-08-03T01:17:30.334Z,21.15
2022-08-03T01:20:04.579Z,21.17
2022-08-03T01:23:08.936Z,21.21
2022-08-03T01:25:54.610Z,21.12
2022-08-03T01:28:39.326Z,21.02
2022-08-03T01:31:10.333Z,21.03
2022-08-03T01:33:55.778Z,21.15
2022-08-03T01:36:26.716Z,21.06
2022-08-03T01:39:00.910Z,21.09
2022-08-03T01:41:33.971Z,21.04
2022-08-03T01:44:29.942Z,20.79
2022-08-03T01:46:51.630Z,20.79
2022-08-03T01:49:18.503Z,20.25
2022-08-03T01:52:02.722Z,20.76
2022-08-03T01:54:34.210Z,20.53
2022-08-03T01:57:02.898Z,20.33
2022-08-03T01:59:32.493Z,20.45
2022-08-03T02:02:28.975Z,20.72
2022-08-03T02:04:49.161Z,20.43
2022-08-03T02:07:16.841Z,20.89
2022-08-03T02:09:46.979Z,20.52
2022-08-03T02:12:15.304Z,20.54
2022-08-03T02:14:44.468Z,20.97
2022-08-03T02:17:13.243Z,21.07
2022-08-03T02:19:41.183Z,21.08
2022-08-03T02:22:11.324Z,21.11
2022-08-03T02:24:38.580Z,20.57
2022-08-03T02:27:14.636Z,21.14
2022-08-03T02:29:46.668Z,21.19
2022-08-03T02:32:18.488Z,21.14
2022-08-03T02:34:49.020Z,21.08
2022-08-03T02:37:19.314Z,20.94
2022-08-03T02:39:48.027Z,21.18
2022-08-03T02:42:19.894Z,21.17
2022-08-03T02:44:48.986Z,21.16
2022-08-03T02:47:17.220Z,21.13
2022-08-03T02:49:50.941Z,21.05
2022-08-03T02:52:20.932Z,20.56
2022-08-03T02:54:51.221Z,21.16
2022-08-03T02:57:20.121Z,21.17
2022-08-03T02:59:47.783Z,21.10
2022-08-03T03:02:16.591Z,20.72
2022-08-03T03:05:53.401Z,20.86
2022-08-03T03:07:39.138Z,20.80
2022-08-03T03:10:21.876Z,20.95
2022-08-03T03:12:52.201Z,21.02
2022-08-03T03:15:19.062Z,20.91
2022-08-03T03:17:47.370Z,21.09
2022-08-03T03:20:15.862Z,21.16
2022-08-03T03:23:00.177Z,21.12
2022-08-03T03:25:30.664Z,21.08
2022-08-03T03:27:58.220Z,20.59
2022-08-03T03:30:26.246Z,20.26
2022-08-03T03:32:53.435Z,19.58
2022-08-03T03:35:20.463Z,20.36
2022-08-03T03:37:47.252Z,20.25
2022-08-03T03:40:14.511Z,20.67
2022-08-03T03:42:41.443Z,20.75
2022-08-03T03:45:09.041Z,20.91
2022-08-03T03:47:35.781Z,20.79
2022-08-03T03:50:04.771Z,20.84
2022-08-03T03:52:32.864Z,20.88
2022-08-03T03:55:01.263Z,21.12
2022-08-03T03:57:29.364Z,21.22
2022-08-03T03:59:56.443Z,21.09
2022-08-03T04:02:23.220Z,20.77
2022-08-03T04:05:08.466Z,21.35
2022-08-03T04:08:13.256Z,21.43
2022-08-03T04:11:00.517Z,21.56
2022-08-03T04:13:35.420Z,21.27
2022-08-03T04:16:03.422Z,21.30
2022-08-03T04:18:32.849Z,21.36
2022-08-03T04:21:03.708Z,21.56
2022-08-03T04:23:34.487Z,21.44
2022-08-03T04:26:03.394Z,21.67
2022-08-03T04:28:32.614Z,21.92
2022-08-03T04:31:01.672Z,21.97
2022-08-03T04:33:31.449Z,21.85
2022-08-03T04:36:03.403Z,21.80
2022-08-03T04:38:36.800Z,21.52
2022-08-03T04:41:04.343Z,21.55
2022-08-03T04:43:33.693Z,22.19
2022-08-03T04:46:01.660Z,21.40
2022-08-03T04:48:28.706Z,22.04
2022-08-03T04:50:55.464Z,22.03
2022-08-03T04:53:22.553Z,22.46
2022-08-03T04:55:49.994Z,22.54
2022-08-03T04:58:16.648Z,22.71
2022-08-03T05:00:43.447Z,22.79
2022-08-03T05:03:23.987Z,22.60
2022-08-03T05:06:01.652Z,23.05
2022-08-03T05:08:46.270Z,23.21
2022-08-03T05:11:15.407Z,23.43
2022-08-03T05:13:42.196Z,23.76
2022-08-03T05:16:09.025Z,23.93
2022-08-03T05:18:36.087Z,23.52
2022-08-03T05:21:02.772Z,24.29
2022-08-03T05:23:29.547Z,24.68
2022-08-03T05:25:56.311Z,24.95
2022-08-03T05:28:23.173Z,25.13
2022-08-03T05:30:49.786Z,25.20
2022-08-03T05:33:16.443Z,24.91
2022-08-03T05:36:00.784Z,25.23
2022-08-03T05:38:35.125Z,25.06
2022-08-03T05:41:23.237Z,24.50
2022-08-03T05:43:55.484Z,24.05
2022-08-03T05:46:23.225Z,24.47
2022-08-03T05:48:50.220Z,24.60
2022-08-03T05:51:17.135Z,24.52
2022-08-03T05:53:44.869Z,24.77
2022-08-03T05:56:14.666Z,24.85
2022-08-03T05:58:47.358Z,24.95
2022-08-03T06:01:16.191Z,25.12
2022-08-03T06:03:43.095Z,25.34
2022-08-03T06:06:09.799Z,25.56
2022-08-03T06:08:36.817Z,25.82
2022-08-03T06:11:04.833Z,25.74
2022-08-03T06:13:32.248Z,25.99
2022-08-03T06:15:58.999Z,26.12
2022-08-03T06:18:25.791Z,26.29
2022-08-03T06:20:53.021Z,26.26
2022-08-03T06:23:19.764Z,25.59
2022-08-03T06:25:47.222Z,25.77
2022-08-03T06:28:42.409Z,26.13
2022-08-03T06:31:01.997Z,25.89
2022-08-03T06:34:30.213Z,25.69
2022-08-03T06:36:15.734Z,25.18
2022-08-03T06:38:42.469Z,25.45
2022-08-03T06:41:09.179Z,25.34
2022-08-03T06:43:37.964Z,24.61
2022-08-03T06:46:24.531Z,25.02
2022-08-03T06:48:52.712Z,25.26
2022-08-03T06:51:19.409Z,25.47
2022-08-03T06:53:46.066Z,25.02
2022-08-03T06:56:12.745Z,25.71
2022-08-03T06:58:39.342Z,25.97
2022-08-03T07:01:06.016Z,25.73
2022-08-03T07:03:32.757Z,25.99
2022-08-03T07:06:00.007Z,26.18
2022-08-03T07:08:33.137Z,26.29
2022-08-03T07:11:00.752Z,26.64
2022-08-03T07:13:27.406Z,26.88
2022-08-03T07:15:56.140Z,27.00
2022-08-03T07:18:25.677Z,27.33
2022-08-03T07:20:56.923Z,27.26
2022-08-03T07:23:23.607Z,27.67
2022-08-03T07:25:51.013Z,27.85
2022-08-03T07:28:18.252Z,27.87
2022-08-03T07:30:44.927Z,28.20
2022-08-03T07:33:11.972Z,28.35
2022-08-03T07:35:38.972Z,28.60
2022-08-03T07:38:05.700Z,28.23
2022-08-03T07:40:32.453Z,28.97
2022-08-03T07:43:00.259Z,28.72
2022-08-03T07:45:27.066Z,29.04
2022-08-03T07:47:54.432Z,29.25
2022-08-03T07:50:22.357Z,29.60
2022-08-03T07:52:50.756Z,29.67
2022-08-03T07:55:22.962Z,29.86
2022-08-03T07:58:16.511Z,29.61
2022-08-03T08:00:46.159Z,29.76
2022-08-03T08:03:13.449Z,29.47
2022-08-03T08:05:40.248Z,29.87
2022-08-03T08:08:07.179Z,30.19
2022-08-03T08:10:34.258Z,30.14
2022-08-03T08:13:01.968Z,29.57
2022-08-03T08:15:28.827Z,28.95
2022-08-03T08:17:57.885Z,29.58
2022-08-03T08:20:31.387Z,29.10
2022-08-03T08:23:12.146Z,28.67
2022-08-03T08:25:52.318Z,29.71
2022-08-03T08:28:22.339Z,29.75
2022-08-03T08:30:59.190Z,30.37
2022-08-03T08:33:25.929Z,30.25
2022-08-03T08:35:56.756Z,30.13
2022-08-03T08:38:23.732Z,29.74
2022-08-03T08:40:50.873Z,30.27
2022-08-03T08:43:17.511Z,30.39
2022-08-03T08:45:45.135Z,29.67
2022-08-03T08:48:13.991Z,30.04
2022-08-03T08:50:41.016Z,30.00
2022-08-03T08:53:17.576Z,30.17
2022-08-03T08:55:59.732Z,30.49
2022-08-03T08:58:36.963Z,30.32
2022-08-03T09:01:04.760Z,30.36
2022-08-03T09:03:33.981Z,30.35
2022-08-03T09:06:01.422Z,30.18
2022-08-03T09:08:30.023Z,30.22
2022-08-03T09:10:56.735Z,30.78
2022-08-03T09:13:23.453Z,30.72
2022-08-03T09:16:12.992Z,30.54
2022-08-03T09:18:40.281Z,30.27
2022-08-03T09:21:35.255Z,30.36
2022-08-03T09:24:05.906Z,30.06
2022-08-03T09:26:38.072Z,30.13
2022-08-03T09:29:14.417Z,29.95
2022-08-03T09:31:46.958Z,29.83
2022-08-03T09:34:17.820Z,29.53
2022-08-03T09:36:50.580Z,29.24
2022-08-03T09:39:41.659Z,29.38
2022-08-03T09:42:15.020Z,29.40
2022-08-03T09:44:49.087Z,29.30
2022-08-03T09:47:36.690Z,29.23
2022-08-03T09:50:08.799Z,29.55
2022-08-03T09:52:52.148Z,29.40
2022-08-03T09:56:33.878Z,29.63
2022-08-03T09:58:10.670Z,29.12
2022-08-03T10:00:59.613Z,29.54
2022-08-03T10:03:31.215Z,29.73
2022-08-03T10:06:00.013Z,29.59
2022-08-03T10:08:27.001Z,29.64
2022-08-03T10:10:58.774Z,29.14
2022-08-03T10:13:25.639Z,29.85
2022-08-03T10:16:22.184Z,30.32
2022-08-03T10:18:39.160Z,30.34
2022-08-03T10:21:10.727Z,31.08
2022-08-03T10:23:40.974Z,30.89
2022-08-03T10:26:11.235Z,30.90
2022-08-03T10:28:47.414Z,30.54
2022-08-03T10:31:16.447Z,31.17
2022-08-03T10:33:51.491Z,30.98
2022-08-03T10:36:24.028Z,31.57
2022-08-03T10:38:56.605Z,31.17
2022-08-03T10:41:32.435Z,31.50
2022-08-03T10:44:05.376Z,31.00
2022-08-03T10:46:34.801Z,31.41
2022-08-03T10:49:03.082Z,31.61
2022-08-03T10:51:33.123Z,31.54
2022-08-03T10:54:01.987Z,31.35
2022-08-03T10:56:54.394Z,31.90
2022-08-03T10:59:47.476Z,31.65
2022-08-03T11:02:15.218Z,31.36
2022-08-03T11:04:42.864Z,31.37
2022-08-03T11:07:25.449Z,32.08
2022-08-03T11:09:54.492Z,31.81
2022-08-03T11:12:28.400Z,31.67
2022-08-03T11:15:01.984Z,31.45
2022-08-03T11:17:28.764Z,31.05
2022-08-03T11:19:57.736Z,31.51
2022-08-03T11:22:25.861Z,31.23
2022-08-03T11:24:54.459Z,31.83
2022-08-03T11:27:24.532Z,31.89
2022-08-03T11:30:27.573Z,32.13
2022-08-03T11:32:58.341Z,32.20
2022-08-03T11:35:26.829Z,32.32
2022-08-03T11:38:03.558Z,32.53
2022-08-03T11:40:45.428Z,32.93
2022-08-03T11:43:31.401Z,33.12
2022-08-03T11:45:58.493Z,32.61
2022-08-03T11:48:33.988Z,31.66
2022-08-03T11:51:05.741Z,31.79
2022-08-03T11:53:32.970Z,32.15
2022-08-03T11:56:12.617Z,31.86
2022-08-03T11:59:01.718Z,32.19
2022-08-03T12:01:41.766Z,32.61
2022-08-03T12:04:08.635Z,32.47
2022-08-03T12:06:54.800Z,30.90
2022-08-03T12:09:21.966Z,30.97
2022-08-03T12:11:59.623Z,30.52
2022-08-03T12:14:50.503Z,30.51
2022-08-03T12:17:17.489Z,30.93
2022-08-03T12:19:45.269Z,30.75
2022-08-03T12:22:11.910Z,31.51
2022-08-03T12:24:46.788Z,31.42
2022-08-03T12:27:23.379Z,31.12
2022-08-03T12:29:58.571Z,31.03
2022-08-03T12:32:26.495Z,31.08
2022-08-03T12:34:53.225Z,30.97
2022-08-03T12:37:29.818Z,31.44
2022-08-03T12:40:07.743Z,31.17
2022-08-03T12:42:38.890Z,31.92
2022-08-03T12:45:26.319Z,31.77
2022-08-03T12:47:58.782Z,29.28
2022-08-03T12:50:36.303Z,30.94
2022-08-03T12:53:05.665Z,31.02
2022-08-03T12:55:56.597Z,31.02
2022-08-03T12:58:35.029Z,30.97
2022-08-03T13:01:09.554Z,33.38
2022-08-03T13:03:49.579Z,33.04
2022-08-03T13:06:22.349Z,33.58
2022-08-03T13:08:49.627Z,35.95
2022-08-03T13:11:55.961Z,36.79
2022-08-03T13:14:19.479Z,32.96
2022-08-03T13:16:47.425Z,31.39
2022-08-03T13:19:15.561Z,31.78
2022-08-03T13:21:53.577Z,30.53
2022-08-03T13:24:31.422Z,31.13
2022-08-03T13:26:58.717Z,31.03
2022-08-03T13:29:25.318Z,30.96
2022-08-03T13:31:52.090Z,30.60
2022-08-03T13:34:23.597Z,30.48
2022-08-03T13:37:09.434Z,30.77
2022-08-03T13:39:57.562Z,30.85
2022-08-03T13:42:23.363Z,30.34
2022-08-03T13:44:50.138Z,30.45
2022-08-03T13:47:17.248Z,30.32
2022-08-03T13:49:54.267Z,31.23
2022-08-03T13:52:28.013Z,31.60
2022-08-03T13:54:54.807Z,31.41
2022-08-03T13:58:04.543Z,31.25
2022-08-03T14:00:09.109Z,31.41
2022-08-03T14:02:36.034Z,31.24
2022-08-03T14:05:02.878Z,31.38
2022-08-03T14:07:29.497Z,31.14
2022-08-03T14:09:56.919Z,31.39
2022-08-03T14:12:23.632Z,31.33
2022-08-03T14:14:50.630Z,30.69
2022-08-03T14:17:17.422Z,31.10
2022-08-03T14:19:53.046Z,31.67
2022-08-03T14:22:21.300Z,32.23
2022-08-03T14:24:49.329Z,32.79
2022-08-03T14:27:16.874Z,33.38
2022-08-03T14:29:43.766Z,33.33
2022-08-03T14:32:13.221Z,33.97
2022-08-03T14:34:40.829Z,34.20
2022-08-03T14:37:07.583Z,33.76
2022-08-03T14:42:21.632Z,34.43
2022-08-03T14:44:48.420Z,34.21
2022-08-03T14:47:15.268Z,34.43
2022-08-03T14:50:36.560Z,35.23
2022-08-03T14:52:29.480Z,35.84
2022-08-03T14:54:56.225Z,35.68
2022-08-03T14:57:22.927Z,35.02
2022-08-03T14:59:56.401Z,34.25
2022-08-03T15:02:25.267Z,34.31
2022-08-03T15:04:52.797Z,35.54
2022-08-03T15:07:20.860Z,35.37
2022-08-03T15:09:48.116Z,35.38
2022-08-03T15:12:14.750Z,32.95
2022-08-03T15:14:41.525Z,31.28
2022-08-03T15:17:08.279Z,31.51
2022-08-03T15:20:00.302Z,30.16
2022-08-03T15:22:24.953Z,30.18
2022-08-03T15:26:27.936Z,30.18
2022-08-03T15:28:03.759Z,30.18
2022-08-03T15:30:35.106Z,30.31
2022-08-03T15:33:02.289Z,30.09
2022-08-03T15:35:29.048Z,31.08
2022-08-03T15:37:55.692Z,32.52
2022-08-03T15:40:22.526Z,33.22
2022-08-03T15:42:49.171Z,32.38
2022-08-03T15:45:17.828Z,31.35
2022-08-03T15:47:47.278Z,31.11
2022-08-03T15:50:13.967Z,30.63
2022-08-03T15:52:40.629Z,30.42
2022-08-03T15:55:07.902Z,30.12
2022-08-03T15:57:34.523Z,30.13
2022-08-03T16:00:21.176Z,30.19
2022-08-03T16:03:00.792Z,30.41
2022-08-03T16:05:27.785Z,30.28
2022-08-03T16:08:03.147Z,30.62
2022-08-03T16:10:32.459Z,30.58
2022-08-03T16:13:00.160Z,30.33
2022-08-03T16:15:27.781Z,30.31
2022-08-03T16:17:54.747Z,30.18
2022-08-03T16:20:29.270Z,29.50
2022-08-03T16:23:00.493Z,28.62
2022-08-03T16:25:28.142Z,29.05
2022-08-03T16:28:00.352Z,28.99
2022-08-03T16:30:35.422Z,28.91
2022-08-03T16:33:02.151Z,28.69
2022-08-03T16:35:28.849Z,29.25
2022-08-03T16:37:56.452Z,30.03
2022-08-03T16:40:25.139Z,30.27
2022-08-03T16:42:51.798Z,30.14
2022-08-03T16:45:18.593Z,29.62
2022-08-03T16:47:45.296Z,29.73
2022-08-03T16:50:19.000Z,28.90
2022-08-03T16:52:47.685Z,30.42
2022-08-03T16:55:16.024Z,30.66
2022-08-03T16:58:03.166Z,30.56
2022-08-03T17:00:41.259Z,29.59
2022-08-03T17:03:12.791Z,29.10
2022-08-03T17:05:49.542Z,28.67
2022-08-03T17:08:26.489Z,28.30
2022-08-03T17:10:54.936Z,28.29
2022-08-03T17:13:22.889Z,27.94
2022-08-03T17:15:57.741Z,27.28
2022-08-03T17:18:29.730Z,27.67
2022-08-03T17:20:58.550Z,27.57
2022-08-03T17:23:48.902Z,27.57
2022-08-03T17:26:21.941Z,27.35
2022-08-03T17:28:57.636Z,27.41
2022-08-03T17:31:31.245Z,27.40
2022-08-03T17:34:02.103Z,27.50
2022-08-03T17:37:02.595Z,27.46
2022-08-03T17:39:27.080Z,27.38
2022-08-03T17:42:30.404Z,27.29
2022-08-03T17:44:55.339Z,26.97
2022-08-03T17:47:23.255Z,27.07
2022-08-03T17:49:56.989Z,27.06
2022-08-03T17:52:41.428Z,26.82
2022-08-03T17:55:56.495Z,26.88
2022-08-03T17:58:14.982Z,26.68
2022-08-03T18:01:04.214Z,26.59
2022-08-03T18:03:59.827Z,26.45
2022-08-03T18:06:31.190Z,26.25
2022-08-03T18:09:04.864Z,26.18
2022-08-03T18:11:35.560Z,25.98
2022-08-03T18:14:16.612Z,25.89
2022-08-03T18:16:57.557Z,25.83
2022-08-03T18:20:03.631Z,25.23
2022-08-03T18:22:21.391Z,25.48
2022-08-03T18:24:52.470Z,25.44
2022-08-03T18:27:21.322Z,25.35
2022-08-03T18:29:51.552Z,24.78
2022-08-03T18:32:18.394Z,25.05
2022-08-03T18:34:53.052Z,24.79
2022-08-03T18:37:25.240Z,24.85
2022-08-03T18:39:55.294Z,24.60
2022-08-03T18:42:25.858Z,24.64
2022-08-03T18:44:56.150Z,24.15
2022-08-03T18:47:52.091Z,24.55
2022-08-03T18:50:30.947Z,24.44
2022-08-03T18:53:15.799Z,24.30
2022-08-03T18:56:14.649Z,24.25
2022-08-03T18:59:05.208Z,24.13
2022-08-03T19:01:58.617Z,24.07
2022-08-03T19:04:35.908Z,23.96
2022-08-03T19:07:07.910Z,23.76
2022-08-03T19:10:11.281Z,23.74
2022-08-03T19:12:49.086Z,23.39
2022-08-03T19:15:36.167Z,23.26
2022-08-03T19:18:08.749Z,23.11
2022-08-03T19:20:37.653Z,22.91
2022-08-03T19:23:04.790Z,22.54
2022-08-03T19:25:38.421Z,22.51
2022-08-03T19:28:07.195Z,22.46
2022-08-03T19:30:40.322Z,22.24
2022-08-03T19:33:12.310Z,22.29
2022-08-03T19:35:55.202Z,22.27
2022-08-03T19:38:28.816Z,21.98
2022-08-03T19:41:03.253Z,22.29
2022-08-03T19:43:52.691Z,22.07
2022-08-03T19:46:21.680Z,22.03
2022-08-03T19:49:03.742Z,22.03
2022-08-03T19:52:02.512Z,21.93
2022-08-03T19:54:29.808Z,21.90
2022-08-03T19:57:02.609Z,21.77
2022-08-03T19:59:46.420Z,21.70
2022-08-03T20:02:25.684Z,21.58
2022-08-03T20:04:58.221Z,21.34
2022-08-03T20:07:28.554Z,21.28
2022-08-03T20:09:56.487Z,21.31
2022-08-03T20:12:27.888Z,21.57
2022-08-03T20:14:59.289Z,21.47
2022-08-03T20:17:54.882Z,21.35
2022-08-03T20:20:13.889Z,21.07
2022-08-03T20:22:46.118Z,11.03
2022-08-03T20:25:20.746Z,20.66
2022-08-03T20:28:06.939Z,20.31
2022-08-03T20:30:42.508Z,21.04
2022-08-03T20:33:10.489Z,20.96
2022-08-03T20:35:37.465Z,20.95
2022-08-03T20:38:04.243Z,20.67
2022-08-03T20:40:31.475Z,20.89
2022-08-03T20:42:59.815Z,20.84
2022-08-03T20:45:59.187Z,20.08
2022-08-03T20:48:18.322Z,20.30
2022-08-03T20:50:49.080Z,20.22
2022-08-03T20:53:31.171Z,20.52
2022-08-03T20:56:04.260Z,20.58
2022-08-03T20:58:31.171Z,20.02
2022-08-03T21:00:58.309Z,20.27
2022-08-03T21:03:24.954Z,20.49
2022-08-03T21:06:12.136Z,20.50
2022-08-03T21:08:49.620Z,20.47
2022-08-03T21:11:17.872Z,20.50
2022-08-03T21:13:56.152Z,20.49
2022-08-03T21:16:26.990Z,20.62
2022-08-03T21:18:57.793Z,20.61
2022-08-03T21:21:26.817Z,20.44
2022-08-03T21:23:54.984Z,20.15
2022-08-03T21:26:25.538Z,20.52
2022-08-03T21:28:54.402Z,19.85
2022-08-03T21:31:24.847Z,19.53
2022-08-03T21:33:57.213Z,20.45
2022-08-03T21:36:27.043Z,20.50
2022-08-03T21:38:57.253Z,20.42
2022-08-03T21:41:30.234Z,20.35
2022-08-03T21:43:57.377Z,20.36
2022-08-03T21:46:26.011Z,20.33
2022-08-03T21:50:04.135Z,20.25
2022-08-03T21:51:44.451Z,20.20
2022-08-03T21:54:11.776Z,20.03
2022-08-03T21:56:43.040Z,20.01
2022-08-03T21:59:17.212Z,19.81
2022-08-03T22:01:49.201Z,19.61
2022-08-03T22:04:37.260Z,19.64
2022-08-03T22:07:08.270Z,19.68
2022-08-03T22:09:36.531Z,19.73
2022-08-03T22:12:04.078Z,19.65
2022-08-03T22:14:32.745Z,19.71
2022-08-03T22:17:00.264Z,19.28
2022-08-03T22:19:26.972Z,19.37
2022-08-03T22:21:54.481Z,18.38
2022-08-03T22:24:23.906Z,19.48
2022-08-03T22:27:09.817Z,19.40
2022-08-03T22:29:36.852Z,19.44
2022-08-03T22:32:04.078Z,19.36
2022-08-03T22:34:31.074Z,16.83
2022-08-03T22:37:03.287Z,19.09
2022-08-03T22:39:30.425Z,19.11
2022-08-03T22:42:00.893Z,19.08
2022-08-03T22:44:28.241Z,19.05
2022-08-03T22:46:55.979Z,18.80
2022-08-03T22:49:22.839Z,18.82
2022-08-03T22:51:52.003Z,18.41
2022-08-03T22:54:20.244Z,18.59
2022-08-03T22:56:47.140Z,18.66
2022-08-03T22:59:41.379Z,18.32
2022-08-03T23:02:20.711Z,18.62
2022-08-03T23:04:55.110Z,18.65
2022-08-03T23:07:28.727Z,18.64
2022-08-03T23:09:57.863Z,18.54
2022-08-03T23:12:24.819Z,18.24
2022-08-03T23:14:57.594Z,18.67
2022-08-03T23:17:26.424Z,18.53
2022-08-03T23:19:53.936Z,18.46
2022-08-03T23:22:29.904Z,18.44
2022-08-03T23:24:59.147Z,18.35
2022-08-03T23:27:27.879Z,18.45
2022-08-03T23:29:58.443Z,18.51
2022-08-03T23:32:30.782Z,18.34
2022-08-03T23:35:18.887Z,18.54
2022-08-03T23:38:04.117Z,17.93
2022-08-03T23:40:34.126Z,18.29
2022-08-03T23:43:02.773Z,18.33
2022-08-03T23:45:34.629Z,18.23
2022-08-03T23:48:01.272Z,18.23
2022-08-03T23:50:40.357Z,18.20
2022-08-03T23:53:14.652Z,18.16
2022-08-03T23:55:53.375Z,17.90
2022-08-03T23:58:50.240Z,17.94
